createdAt,value
2018-08-12T00:00:00.574Z,13.1
2018-08-12T00:00:51.224Z,13.1
2018-08-12T00:01:41.284Z,13.1
2018-08-12T00:02:31.041Z,13.1
2018-08-12T00:03:21.394Z,13.1
2018-08-12T00:04:11.234Z,13.1
2018-08-12T00:05:01.264Z,13.1
2018-08-12T00:05:51.624Z,13.1
2018-08-12T00:06:41.368Z,13.1
2018-08-12T00:07:31.450Z,13.1
2018-08-12T00:08:21.788Z,13.1
2018-08-12T00:09:11.906Z,13.1
2018-08-12T00:10:01.911Z,13.1
2018-08-12T00:10:51.697Z,13.1
2018-08-12T00:11:42.037Z,13.1
2018-08-12T00:12:31.817Z,13.1
2018-08-12T00:13:22.153Z,13.1
2018-08-12T00:14:11.679Z,13.1
2018-08-12T00:15:02.301Z,13.1
2018-08-12T00:15:52.347Z,13.1
2018-08-12T00:16:42.204Z,13.1
2018-08-12T00:17:32.496Z,13.1
2018-08-12T00:18:22.319Z,13.1
2018-08-12T00:37:15.571Z,12.7
2018-08-12T00:38:05.595Z,12.7
2018-08-12T00:38:55.912Z,12.7
2018-08-12T00:39:45.996Z,12.6
2018-08-12T00:40:35.760Z,12.6
2018-08-12T00:41:25.828Z,12.6
2018-08-12T00:42:16.170Z,12.6
2018-08-12T00:43:06.236Z,12.6
2018-08-12T00:43:56.335Z,12.6
2018-08-12T00:44:45.789Z,12.6
2018-08-12T00:45:36.432Z,12.6
2018-08-12T00:46:26.487Z,12.6
2018-08-12T00:47:16.266Z,12.6
2018-08-12T00:48:06.340Z,12.5
2018-08-12T00:48:56.397Z,12.5
2018-08-12T00:49:46.463Z,12.5
2018-08-12T00:50:36.808Z,12.5
2018-08-12T00:51:26.876Z,12.5
2018-08-12T00:52:17.056Z,12.4
2018-08-12T00:53:07.047Z,12.4
2018-08-12T00:53:56.783Z,12.4
2018-08-12T00:54:47.117Z,12.4
2018-08-12T00:55:37.188Z,12.4
2018-08-12T00:56:27.242Z,12.3
2018-08-12T00:57:17.044Z,12.3
2018-08-12T00:58:07.381Z,12.3
2018-08-12T00:58:57.156Z,12.3
2018-08-12T00:59:47.213Z,12.3
2018-08-12T01:00:37.291Z,12.3
2018-08-12T01:01:27.354Z,12.2
2018-08-12T01:02:17.735Z,12.2
2018-08-12T01:03:07.775Z,12.1
2018-08-12T01:03:57.541Z,12.1
2018-08-12T01:04:47.618Z,12.1
2018-08-12T01:05:37.942Z,12.1
2018-08-12T01:06:27.738Z,12.1
2018-08-12T01:07:17.798Z,12.1
2018-08-12T01:08:08.139Z,12
2018-08-12T01:08:58.207Z,12
2018-08-12T01:09:48.299Z,12
2018-08-12T01:10:38.344Z,11.9
2018-08-12T01:11:28.420Z,11.9
2018-08-12T01:12:18.183Z,11.9
2018-08-12T01:13:08.541Z,11.9
2018-08-12T01:13:58.611Z,11.9
2018-08-12T01:14:48.689Z,11.9
2018-08-12T01:15:38.451Z,11.9
2018-08-12T01:16:28.774Z,11.8
2018-08-12T01:17:18.553Z,11.8
2018-08-12T01:18:08.911Z,11.8
2018-08-12T01:18:58.695Z,11.8
2018-08-12T01:19:49.054Z,11.8
2018-08-12T01:20:39.125Z,11.8
2018-08-12T01:21:28.905Z,11.8
2018-08-12T01:22:19.238Z,11.8
2018-08-12T01:23:09.121Z,11.8
2018-08-12T01:23:59.358Z,11.8
2018-08-12T01:24:49.433Z,11.8
2018-08-12T01:25:39.202Z,11.8
2018-08-12T01:26:29.267Z,11.8
2018-08-12T01:27:19.332Z,11.8
2018-08-12T01:28:09.682Z,11.7
2018-08-12T01:28:59.755Z,11.7
2018-08-12T01:29:49.819Z,11.7
2018-08-12T01:30:39.893Z,11.7
2018-08-12T01:31:29.940Z,11.7
2018-08-12T01:32:19.717Z,11.7
2018-08-12T01:33:10.072Z,11.7
2018-08-12T01:33:59.847Z,11.7
2018-08-12T01:34:50.210Z,11.7
2018-08-12T01:35:40.276Z,11.7
2018-08-12T01:36:30.049Z,11.6
2018-08-12T01:37:20.116Z,11.6
2018-08-12T01:38:10.465Z,11.7
2018-08-12T01:39:00.245Z,11.6
2018-08-12T01:39:50.304Z,11.6
2018-08-12T01:40:40.358Z,11.6
2018-08-12T01:41:30.425Z,11.6
2018-08-12T01:42:20.761Z,11.6
2018-08-12T01:43:10.557Z,11.6
2018-08-12T01:44:00.619Z,11.6
2018-08-12T01:44:50.955Z,11.6
2018-08-12T01:45:40.779Z,11.6
2018-08-12T01:46:30.817Z,11.6
2018-08-12T01:47:20.864Z,11.6
2018-08-12T01:48:11.234Z,11.6
2018-08-12T01:49:01.083Z,11.6
2018-08-12T01:49:51.332Z,11.6
2018-08-12T01:50:41.114Z,11.6
2018-08-12T01:51:31.471Z,11.6
2018-08-12T01:52:21.539Z,11.6
2018-08-12T01:53:11.315Z,11.6
2018-08-12T01:54:01.391Z,11.6
2018-08-12T01:54:51.743Z,11.6
2018-08-12T01:55:41.807Z,11.6
2018-08-12T01:56:31.668Z,11.5
2018-08-12T01:57:21.931Z,11.6
2018-08-12T01:58:12.001Z,11.5
2018-08-12T01:59:02.055Z,11.5
2018-08-12T01:59:51.561Z,11.5
2018-08-12T02:00:42.186Z,11.5
2018-08-12T02:01:32.250Z,11.5
2018-08-12T02:02:22.021Z,11.5
2018-08-12T02:03:12.370Z,11.4
2018-08-12T02:04:02.154Z,11.4
2018-08-12T02:04:52.208Z,11.4
2018-08-12T02:05:42.564Z,11.4
2018-08-12T02:06:32.354Z,11.4
2018-08-12T02:07:22.425Z,11.4
2018-08-12T02:08:12.766Z,11.4
2018-08-12T02:09:02.533Z,11.4
2018-08-12T02:09:52.620Z,11.4
2018-08-12T02:10:42.683Z,11.4
2018-08-12T02:11:32.458Z,11.4
2018-08-12T02:12:22.822Z,11.4
2018-08-12T02:13:12.855Z,11.4
2018-08-12T02:14:03.215Z,11.4
2018-08-12T02:14:53.320Z,11.4
2018-08-12T02:15:43.360Z,11.4
2018-08-12T02:16:33.398Z,11.4
2018-08-12T02:17:23.185Z,11.4
2018-08-12T02:18:12.957Z,11.4
2018-08-12T02:19:03.297Z,11.4
2018-08-12T02:19:53.667Z,11.3
2018-08-12T02:20:43.735Z,11.3
2018-08-12T02:21:32.919Z,11.3
2018-08-12T02:22:23.543Z,11.3
2018-08-12T02:23:13.343Z,11.3
2018-08-12T02:24:03.987Z,11.3
2018-08-12T02:24:54.116Z,11.3
2018-08-12T02:25:44.124Z,11.3
2018-08-12T02:26:33.904Z,11.3
2018-08-12T02:27:24.270Z,11.3
2018-08-12T02:28:14.027Z,11.3
2018-08-12T02:29:04.076Z,11.3
2018-08-12T02:29:54.416Z,11.3
2018-08-12T02:30:44.482Z,11.3
2018-08-12T02:31:34.548Z,11.3
2018-08-12T02:32:24.630Z,11.3
2018-08-12T02:33:14.404Z,11.3
2018-08-12T02:34:04.774Z,11.3
2018-08-12T02:34:54.526Z,11.2
2018-08-12T02:35:44.856Z,11.3
2018-08-12T02:36:34.679Z,11.3
2018-08-12T02:37:24.716Z,11.3
2018-08-12T02:38:15.071Z,11.2
2018-08-12T02:39:05.147Z,11.2
2018-08-12T02:39:55.199Z,11.2
2018-08-12T02:40:44.994Z,11.2
2018-08-12T02:41:35.053Z,11.2
2018-08-12T02:42:25.110Z,11.2
2018-08-12T02:43:15.438Z,11.2
2018-08-12T02:44:05.515Z,11.2
2018-08-12T02:44:55.587Z,11.2
2018-08-12T02:45:45.802Z,11.2
2018-08-12T02:46:35.701Z,11.2
2018-08-12T02:47:25.769Z,11.2
2018-08-12T02:48:15.853Z,11.2
2018-08-12T02:49:05.602Z,11.2
2018-08-12T02:49:55.952Z,11.2
2018-08-12T02:50:45.743Z,11.2
2018-08-12T02:51:35.812Z,11.2
2018-08-12T02:52:26.147Z,11.2
2018-08-12T02:53:15.932Z,11.2
2018-08-12T02:54:06.280Z,11.2
2018-08-12T02:54:56.360Z,11.2
2018-08-12T02:55:46.396Z,11.2
2018-08-12T02:56:36.468Z,11.2
2018-08-12T02:57:26.527Z,11.2
2018-08-12T02:58:16.614Z,11.3
2018-08-12T02:59:06.381Z,11.3
2018-08-12T02:59:56.735Z,11.2
2018-08-12T03:00:46.798Z,11.2
2018-08-12T03:01:36.844Z,11.3
2018-08-12T03:02:26.327Z,11.3
2018-08-12T03:03:16.674Z,11.3
2018-08-12T03:04:06.759Z,11.3
2018-08-12T03:04:57.084Z,11.3
2018-08-12T03:05:46.906Z,11.3
2018-08-12T03:06:37.229Z,11.3
2018-08-12T03:07:27.002Z,11.3
2018-08-12T03:08:17.362Z,11.3
2018-08-12T03:09:07.445Z,11.3
2018-08-12T03:09:57.496Z,11.3
2018-08-12T03:10:47.543Z,11.3
2018-08-12T03:11:37.313Z,11.3
2018-08-12T03:12:27.682Z,11.3
2018-08-12T03:13:17.761Z,11.3
2018-08-12T03:14:07.530Z,11.3
2018-08-12T03:14:57.873Z,11.3
2018-08-12T03:15:47.968Z,11.3
2018-08-12T03:16:37.720Z,11.3
2018-08-12T03:17:28.061Z,11.3
2018-08-12T03:18:18.168Z,11.3
2018-08-12T03:19:08.219Z,11.3
2018-08-12T03:19:57.401Z,11.3
2018-08-12T03:20:48.306Z,11.3
2018-08-12T03:21:38.389Z,11.3
2018-08-12T03:22:28.921Z,11.3
2018-08-12T03:23:18.525Z,11.3
2018-08-12T03:24:08.312Z,11.3
2018-08-12T03:24:58.067Z,11.4
2018-08-12T03:25:48.476Z,11.4
2018-08-12T03:26:38.183Z,11.4
2018-08-12T03:27:28.849Z,11.4
2018-08-12T03:28:18.888Z,11.4
2018-08-12T03:29:08.683Z,11.4
2018-08-12T03:29:59.285Z,11.4
2018-08-12T03:30:49.290Z,11.4
2018-08-12T03:31:38.568Z,11.4
2018-08-12T03:32:28.915Z,11.4
2018-08-12T03:33:19.300Z,11.4
2018-08-12T03:34:09.338Z,11.4
2018-08-12T03:34:59.404Z,11.4
2018-08-12T03:35:49.183Z,11.4
2018-08-12T03:36:39.549Z,11.5
2018-08-12T03:37:29.595Z,11.5
2018-08-12T03:38:19.376Z,11.5
2018-08-12T03:39:09.458Z,11.5
2018-08-12T03:39:59.767Z,11.5
2018-08-12T03:40:49.845Z,11.5
2018-08-12T03:41:39.913Z,11.5
2018-08-12T03:42:29.989Z,11.6
2018-08-12T03:43:19.748Z,11.6
2018-08-12T03:44:10.117Z,11.6
2018-08-12T03:44:59.951Z,11.6
2018-08-12T03:45:50.240Z,11.6
2018-08-12T03:46:40.350Z,11.6
2018-08-12T03:47:30.361Z,11.6
2018-08-12T03:48:20.411Z,11.6
2018-08-12T03:49:10.215Z,11.6
2018-08-12T03:50:00.567Z,11.7
2018-08-12T03:50:50.629Z,11.7
2018-08-12T03:51:40.671Z,11.7
2018-08-12T03:52:30.735Z,11.7
2018-08-12T03:53:20.816Z,11.8
2018-08-12T03:54:10.875Z,11.8
2018-08-12T03:55:00.960Z,11.8
2018-08-12T03:55:50.706Z,11.8
2018-08-12T03:56:41.070Z,11.8
2018-08-12T03:57:31.117Z,11.8
2018-08-12T03:58:20.626Z,11.8
2018-08-12T03:59:11.261Z,11.9
2018-08-12T04:00:01.045Z,11.9
2018-08-12T04:00:51.379Z,11.9
2018-08-12T04:01:41.455Z,11.9
2018-08-12T04:02:31.226Z,11.9
2018-08-12T04:03:21.556Z,11.9
2018-08-12T04:04:11.067Z,11.9
2018-08-12T04:05:01.707Z,11.9
2018-08-12T04:05:51.472Z,11.9
2018-08-12T04:06:41.850Z,12
2018-08-12T04:07:31.310Z,12
2018-08-12T04:08:21.948Z,12
2018-08-12T04:09:11.750Z,12
2018-08-12T04:10:02.094Z,12
2018-08-12T04:10:51.835Z,12.1
2018-08-12T04:11:42.192Z,12.1
2018-08-12T04:12:32.273Z,12.1
2018-08-12T04:13:22.052Z,12.1
2018-08-12T04:14:12.388Z,12.1
2018-08-12T04:15:02.464Z,12.1
2018-08-12T04:15:52.523Z,12.1
2018-08-12T04:16:42.319Z,12.1
2018-08-12T04:17:32.366Z,12.2
2018-08-12T04:18:22.705Z,12.2
2018-08-12T04:19:12.783Z,12.2
2018-08-12T04:20:02.294Z,12.2
2018-08-12T04:20:52.909Z,12.2
2018-08-12T04:21:42.996Z,12.2
2018-08-12T04:22:33.048Z,12.3
2018-08-12T04:23:23.105Z,12.3
2018-08-12T04:24:13.170Z,12.3
2018-08-12T04:25:03.233Z,12.3
2018-08-12T04:25:53.310Z,12.3
2018-08-12T04:26:43.360Z,12.4
2018-08-12T04:27:33.417Z,12.4
2018-08-12T04:28:23.215Z,12.4
2018-08-12T04:29:13.545Z,12.4
2018-08-12T04:30:03.633Z,12.4
2018-08-12T04:30:53.420Z,12.5
2018-08-12T04:31:43.748Z,12.5
2018-08-12T04:32:33.521Z,12.5
2018-08-12T04:33:23.865Z,12.6
2018-08-12T04:34:13.934Z,12.6
2018-08-12T04:35:03.999Z,12.6
2018-08-12T04:35:54.063Z,12.7
2018-08-12T04:36:44.139Z,12.7
2018-08-12T04:37:33.942Z,12.8
2018-08-12T04:38:23.977Z,12.8
2018-08-12T04:39:14.334Z,12.9
2018-08-12T04:40:04.092Z,12.9
2018-08-12T04:40:54.164Z,13
2018-08-12T04:41:44.220Z,13.1
2018-08-12T04:42:34.034Z,13.1
2018-08-12T04:43:24.352Z,13.2
2018-08-12T04:44:14.406Z,13.3
2018-08-12T04:45:04.777Z,13.4
2018-08-12T04:45:54.964Z,13.4
2018-08-12T04:46:44.622Z,13.6
2018-08-12T04:47:34.950Z,13.6
2018-08-12T04:48:25.037Z,13.7
2018-08-12T05:06:39.476Z,15.7
2018-08-12T05:07:29.525Z,15.9
2018-08-12T05:08:19.031Z,16
2018-08-12T05:09:09.666Z,16.1
2018-08-12T05:09:59.736Z,16.3
2018-08-12T05:10:49.804Z,16.4
2018-08-12T05:11:39.856Z,16.5
2018-08-12T05:12:29.914Z,16.6
2018-08-12T05:13:19.954Z,16.7
2018-08-12T05:14:10.051Z,16.8
2018-08-12T05:14:59.820Z,16.9
2018-08-12T05:15:50.169Z,17.1
2018-08-12T05:16:39.368Z,17.2
2018-08-12T05:17:30.296Z,17.3
2018-08-12T05:18:20.073Z,17.5
2018-08-12T05:19:10.416Z,17.6
2018-08-12T05:20:00.205Z,17.8
2018-08-12T05:20:49.678Z,17.9
2018-08-12T05:21:40.613Z,18.1
2018-08-12T05:22:30.657Z,18.4
2018-08-12T05:23:20.786Z,18.6
2018-08-12T05:24:10.506Z,18.9
2018-08-12T05:25:00.869Z,19.1
2018-08-12T05:25:50.932Z,19.4
2018-08-12T05:26:40.980Z,19.7
2018-08-12T05:27:30.506Z,20
2018-08-12T05:28:20.643Z,20.3
2018-08-12T05:29:11.178Z,20.6
2018-08-12T05:30:01.264Z,20.9
2018-08-12T05:30:51.031Z,21.3
2018-08-12T05:31:41.373Z,21.6
2018-08-12T05:32:30.869Z,21.9
2018-08-12T05:33:21.223Z,22.3
2018-08-12T05:34:11.551Z,22.8
2018-08-12T05:35:01.343Z,23.2
2018-08-12T05:35:51.412Z,23.6
2018-08-12T05:36:41.778Z,24.1
2018-08-12T05:37:31.612Z,24.5
2018-08-12T05:38:21.869Z,24.9
2018-08-12T05:39:11.464Z,25.4
2018-08-12T05:40:01.728Z,25.8
2018-08-12T05:40:52.085Z,26.3
2018-08-12T05:41:41.852Z,26.6
2018-08-12T05:42:32.190Z,27
2018-08-12T05:43:21.979Z,27.3
2018-08-12T05:44:12.323Z,27.6
2018-08-12T05:45:52.448Z,28
2018-08-12T05:46:42.233Z,28.2
2018-08-12T05:47:32.290Z,28.3
2018-08-12T05:48:22.447Z,28.5
2018-08-12T05:49:12.427Z,28.7
2018-08-12T05:50:02.781Z,28.9
2018-08-12T05:50:52.559Z,29.2
2018-08-12T05:51:42.907Z,29.5
2018-08-12T05:52:32.979Z,29.8
2018-08-12T05:53:22.849Z,30.1
2018-08-12T05:54:13.095Z,30.3
2018-08-12T05:55:03.174Z,30.6
2018-08-12T05:55:53.221Z,30.9
2018-08-12T05:56:43.279Z,31.3
2018-08-12T05:57:33.364Z,31.7
2018-08-12T05:58:22.941Z,32.2
2018-08-12T05:59:12.913Z,32.7
2018-08-12T06:00:03.581Z,33.3
2018-08-12T06:00:53.318Z,33.8
2018-08-12T06:01:43.663Z,34.4
2018-08-12T06:02:33.914Z,34.9
2018-08-12T06:03:23.794Z,35.4
2018-08-12T06:04:13.859Z,35.8
2018-08-12T06:05:03.945Z,36.1
2018-08-12T06:05:53.705Z,36.4
2018-08-12T06:06:44.056Z,36.6
2018-08-12T06:07:34.136Z,36.8
2018-08-12T06:08:23.940Z,37.1
2018-08-12T06:09:14.244Z,37.4
2018-08-12T06:10:04.318Z,37.8
2018-08-12T06:10:54.070Z,38.3
2018-08-12T06:11:44.447Z,38.9
2018-08-12T06:12:34.500Z,39.4
2018-08-12T06:13:24.556Z,40.1
2018-08-12T06:14:14.632Z,40.7
2018-08-12T06:15:04.418Z,41.3
2018-08-12T06:15:54.518Z,41.9
2018-08-12T06:16:44.820Z,42.4
2018-08-12T06:17:35.461Z,43.1
2018-08-12T06:18:24.968Z,43.6
2018-08-12T06:19:15.011Z,44.2
2018-08-12T06:20:04.793Z,44.6
2018-08-12T06:20:54.861Z,45.1
2018-08-12T06:21:45.213Z,45.4
2018-08-12T06:22:35.262Z,45.7
2018-08-12T06:23:25.042Z,45.9
2018-08-12T06:24:15.401Z,46.3
2018-08-12T06:25:05.469Z,46.6
2018-08-12T06:25:55.546Z,46.9
2018-08-12T06:26:45.572Z,47.3
2018-08-12T06:27:35.384Z,47.6
2018-08-12T06:28:25.433Z,47.9
2018-08-12T06:29:15.494Z,48.2
2018-08-12T06:30:05.858Z,48.5
2018-08-12T06:30:55.937Z,48.8
2018-08-12T06:31:45.715Z,48.9
2018-08-12T06:32:36.119Z,49
2018-08-12T06:33:26.121Z,49.1
2018-08-12T06:34:16.021Z,49.1
2018-08-12T06:35:05.945Z,49.3
2018-08-12T06:35:55.724Z,49.4
2018-08-12T06:36:46.381Z,49.6
2018-08-12T06:37:36.437Z,49.8
2018-08-12T06:38:26.203Z,49.9
2018-08-12T06:39:16.553Z,50.1
2018-08-12T06:40:06.349Z,50.3
2018-08-12T06:40:56.678Z,50.6
2018-08-12T06:41:46.758Z,50.9
2018-08-12T06:42:36.826Z,51.1
2018-08-12T06:43:26.869Z,51.5
2018-08-12T06:45:07.001Z,52.4
2018-08-12T06:45:57.088Z,53
2018-08-12T06:46:47.128Z,53.5
2018-08-12T06:47:36.899Z,54.1
2018-08-12T06:48:26.968Z,54.6
2018-08-12T06:49:17.314Z,55.3
2018-08-12T06:50:07.096Z,55.9
2018-08-12T06:50:56.894Z,56.6
2018-08-12T06:51:47.853Z,57.3
2018-08-12T06:52:37.292Z,58.9
2018-08-12T06:53:27.634Z,59.3
2018-08-12T06:54:17.422Z,57.9
2018-08-12T06:55:07.768Z,54.9
2018-08-12T06:55:57.842Z,50.9
2018-08-12T06:56:47.903Z,48.4
2018-08-12T06:57:37.684Z,47.1
2018-08-12T06:58:28.035Z,46.3
2018-08-12T06:59:18.118Z,46.1
2018-08-12T07:00:07.869Z,46.3
2018-08-12T07:00:58.202Z,46.8
2018-08-12T07:01:48.282Z,47.4
2018-08-12T07:02:38.400Z,48.2
2018-08-12T07:03:28.403Z,48.9
2018-08-12T07:04:18.201Z,49.7
2018-08-12T07:05:08.545Z,50.5
2018-08-12T07:05:58.605Z,51.3
2018-08-12T07:06:48.389Z,52.1
2018-08-12T07:07:38.984Z,52.8
2018-08-12T07:08:28.220Z,53.3
2018-08-12T07:09:18.917Z,53.8
2018-08-12T07:10:08.927Z,54.3
2018-08-12T07:10:58.988Z,54.8
2018-08-12T07:11:48.774Z,55.3
2018-08-12T07:12:38.834Z,55.9
2018-08-12T07:13:28.889Z,56.5
2018-08-12T07:14:18.863Z,57.6
2018-08-12T07:15:09.024Z,58.9
2018-08-12T07:15:59.382Z,57.9
2018-08-12T07:16:49.146Z,56.5
2018-08-12T07:17:39.243Z,54.7
2018-08-12T07:18:29.546Z,52.9
2018-08-12T07:19:19.620Z,51.8
2018-08-12T07:20:09.706Z,51.1
2018-08-12T07:20:59.468Z,50.9
2018-08-12T07:21:49.834Z,51.2
2018-08-12T07:22:39.889Z,51.8
2018-08-12T07:24:20.006Z,53.2
2018-08-12T07:25:10.075Z,54
2018-08-12T07:25:59.909Z,54.7
2018-08-12T07:26:49.927Z,55.4
2018-08-12T07:27:39.997Z,55.9
2018-08-12T07:28:30.348Z,56.5
2018-08-12T07:29:20.440Z,58.1
2018-08-12T07:30:10.442Z,58.8
2018-08-12T07:31:00.267Z,58.8
2018-08-12T07:31:50.593Z,58.3
2018-08-12T07:32:40.712Z,57.2
2018-08-12T07:33:30.732Z,55.8
2018-08-12T07:34:20.780Z,55.2
2018-08-12T07:35:10.837Z,55.4
2018-08-12T07:36:00.912Z,56.1
2018-08-12T07:36:50.687Z,56.9
2018-08-12T07:37:41.037Z,57.4
2018-08-12T07:38:31.101Z,57.6
2018-08-12T07:39:21.184Z,57.5
2018-08-12T07:40:11.273Z,57.1
2018-08-12T07:41:01.297Z,56.9
2018-08-12T07:41:51.357Z,56.8
2018-08-12T07:42:41.180Z,56.8
2018-08-12T07:43:30.920Z,57
2018-08-12T07:44:21.550Z,57.1
2018-08-12T07:45:11.612Z,57.1
2018-08-12T07:46:01.694Z,56.9
2018-08-12T07:46:51.459Z,56.6
2018-08-12T07:47:41.517Z,56.3
2018-08-12T07:48:31.889Z,56.1
2018-08-12T07:49:21.403Z,55.9
2018-08-12T07:50:12.047Z,55.7
2018-08-12T07:51:02.088Z,55.4
2018-08-12T07:51:52.133Z,55.1
2018-08-12T07:52:41.917Z,54.7
2018-08-12T07:53:32.280Z,54.1
2018-08-12T07:54:22.338Z,53.6
2018-08-12T07:55:12.400Z,52.8
2018-08-12T07:56:02.467Z,52.1
2018-08-12T07:56:52.238Z,51.7
2018-08-12T07:57:42.584Z,51.3
2018-08-12T07:58:32.377Z,51.1
2018-08-12T07:59:22.731Z,51.1
2018-08-12T08:00:12.793Z,51
2018-08-12T08:01:02.844Z,51.1
2018-08-12T08:01:52.905Z,51.1
2018-08-12T08:02:42.966Z,51.2
2018-08-12T08:03:33.026Z,51.3
2018-08-12T08:04:22.814Z,51.4
2018-08-12T08:05:13.166Z,51.6
2018-08-12T08:06:03.231Z,51.8
2018-08-12T08:06:52.996Z,52
2018-08-12T08:07:43.353Z,52.3
2018-08-12T08:08:33.138Z,52.6
2018-08-12T08:09:23.490Z,52.9
2018-08-12T08:10:13.298Z,53.3
2018-08-12T08:11:03.643Z,53.7
2018-08-12T08:11:53.420Z,54.1
2018-08-12T08:12:43.805Z,54.6
2018-08-12T08:13:33.528Z,55.1
2018-08-12T08:14:23.892Z,55.8
2018-08-12T08:15:13.665Z,56.4
2018-08-12T08:16:03.773Z,57.9
2018-08-12T08:17:44.158Z,58.3
2018-08-12T08:18:34.232Z,57.2
2018-08-12T08:19:23.997Z,55.4
2018-08-12T08:20:14.363Z,53.9
2018-08-12T08:21:04.144Z,53.3
2018-08-12T08:21:54.479Z,53
2018-08-12T08:22:44.268Z,52.9
2018-08-12T08:23:34.604Z,53.1
2018-08-12T08:24:24.666Z,53.7
2018-08-12T08:25:14.798Z,54.4
2018-08-12T08:26:04.781Z,55.1
2018-08-12T08:26:54.849Z,55.8
2018-08-12T08:27:44.962Z,57.3
2018-08-12T08:28:34.967Z,58.3
2018-08-12T08:29:24.750Z,58.3
2018-08-12T08:30:15.096Z,57.9
2018-08-12T08:31:04.877Z,56.8
2018-08-12T08:31:56.721Z,55.4
2018-08-12T08:32:44.730Z,54.5
2018-08-12T08:33:35.375Z,54.5
2018-08-12T08:34:25.486Z,54.9
2018-08-12T08:35:15.493Z,55.3
2018-08-12T08:36:04.976Z,55.5
2018-08-12T08:36:55.616Z,55.4
2018-08-12T08:37:45.717Z,55.1
2018-08-12T08:38:35.769Z,54.8
2018-08-12T08:39:25.836Z,54.6
2018-08-12T08:40:15.577Z,54.7
2018-08-12T08:41:05.641Z,54.8
2018-08-12T08:41:55.984Z,54.9
2018-08-12T08:42:45.769Z,54.9
2018-08-12T08:43:35.848Z,54.9
2018-08-12T08:44:26.196Z,54.9
2018-08-12T08:45:16.250Z,54.9
2018-08-12T08:46:06.345Z,54.9
2018-08-12T08:46:56.393Z,55
2018-08-12T08:47:46.451Z,55.1
2018-08-12T08:48:36.535Z,55.3
2018-08-12T08:49:26.583Z,55.4
2018-08-12T08:50:16.353Z,55.6
2018-08-12T08:51:06.435Z,55.8
2018-08-12T08:51:56.792Z,56.1
2018-08-12T08:52:46.550Z,56.4
2018-08-12T08:53:36.328Z,56.7
2018-08-12T08:54:26.688Z,56.9
2018-08-12T08:55:16.738Z,57.2
2018-08-12T08:56:07.393Z,57.4
2018-08-12T08:57:46.971Z,58.1
2018-08-12T08:58:36.995Z,58.4
2018-08-12T08:59:27.369Z,58.8
2018-08-12T09:00:17.135Z,59.2
2018-08-12T09:01:07.495Z,59.6
2018-08-12T09:01:57.315Z,59.9
2018-08-12T09:02:47.611Z,60.3
2018-08-12T09:03:37.676Z,60.6
2018-08-12T09:04:27.784Z,60.9
2018-08-12T09:20:53.508Z,63.5
2018-08-12T09:21:43.091Z,63.5
2018-08-12T09:22:33.653Z,63.4
2018-08-12T09:23:23.439Z,63.6
2018-08-12T09:24:13.289Z,63.8
2018-08-12T09:25:03.833Z,63.7
2018-08-12T09:25:53.620Z,63.4
2018-08-12T09:26:43.947Z,62.7
2018-08-12T09:27:34.064Z,62
2018-08-12T09:28:23.814Z,61.8
2018-08-12T09:29:14.179Z,62.2
2018-08-12T09:30:04.235Z,62.8
2018-08-12T09:30:53.710Z,62.8
2018-08-12T09:31:44.066Z,62.8
2018-08-12T09:32:34.404Z,62.9
2018-08-12T09:33:24.462Z,63.1
2018-08-12T09:34:14.538Z,63.3
2018-08-12T09:35:04.635Z,63.7
2018-08-12T09:35:54.387Z,64.1
2018-08-12T09:36:44.452Z,64.4
2018-08-12T09:37:34.530Z,64.6
2018-08-12T09:38:24.868Z,64.8
2018-08-12T09:39:14.928Z,64.9
2018-08-12T09:40:04.732Z,65.1
2018-08-12T09:40:55.079Z,65.3
2018-08-12T09:41:44.843Z,65.3
2018-08-12T09:42:35.205Z,65.4
2018-08-12T09:43:25.279Z,65.5
2018-08-12T09:44:15.361Z,65.7
2018-08-12T09:45:05.128Z,65.8
2018-08-12T09:45:55.455Z,65.8
2018-08-12T09:46:45.518Z,65.6
2018-08-12T09:47:35.316Z,65.6
2018-08-12T09:48:25.373Z,65.6
2018-08-12T09:49:15.547Z,65.3
2018-08-12T09:50:05.820Z,64.6
2018-08-12T09:50:55.562Z,63.8
2018-08-12T09:51:46.844Z,63.1
2018-08-12T09:52:35.969Z,62.3
2018-08-12T09:53:26.027Z,61.6
2018-08-12T09:54:15.876Z,61.3
2018-08-12T09:55:05.910Z,61.5
2018-08-12T09:55:56.219Z,61.5
2018-08-12T09:56:46.294Z,61.1
2018-08-12T09:57:36.358Z,60.7
2018-08-12T09:58:26.817Z,60.9
2018-08-12T09:59:16.500Z,61.4
2018-08-12T10:00:06.560Z,61.9
2018-08-12T10:00:56.339Z,62.4
2018-08-12T10:01:46.684Z,62.8
2018-08-12T10:02:36.749Z,63.1
2018-08-12T10:03:26.804Z,63.2
2018-08-12T10:04:16.588Z,63.1
2018-08-12T10:05:06.190Z,62.5
2018-08-12T10:05:56.729Z,61.6
2018-08-12T10:06:46.814Z,60.7
2018-08-12T10:07:37.676Z,59.8
2018-08-12T10:08:27.205Z,59.1
2018-08-12T10:10:07.103Z,58
2018-08-12T10:10:57.131Z,57.5
2018-08-12T10:11:46.706Z,57.6
2018-08-12T10:12:37.579Z,58.4
2018-08-12T10:13:27.063Z,59.3
2018-08-12T10:14:17.655Z,60
2018-08-12T10:15:07.741Z,60.6
2018-08-12T10:15:57.529Z,60.9
2018-08-12T10:16:47.599Z,61.1
2018-08-12T10:17:37.938Z,61.5
2018-08-12T10:18:28.002Z,61.9
2018-08-12T10:19:18.047Z,62.3
2018-08-12T10:20:08.112Z,62.8
2018-08-12T10:20:57.931Z,63.1
2018-08-12T10:21:48.242Z,63.4
2018-08-12T10:22:38.326Z,63.7
2018-08-12T10:23:28.384Z,63.9
2018-08-12T10:24:18.432Z,64.1
2018-08-12T10:25:07.973Z,64.4
2018-08-12T10:25:58.027Z,64.6
2018-08-12T10:26:48.362Z,64.7
2018-08-12T10:27:38.725Z,64.8
2018-08-12T10:28:28.251Z,64.9
2018-08-12T10:29:19.320Z,65.1
2018-08-12T10:30:08.902Z,65.3
2018-08-12T10:30:58.695Z,65.5
2018-08-12T10:31:49.034Z,65.5
2018-08-12T10:32:39.084Z,65.3
2018-08-12T10:33:28.882Z,65.3
2018-08-12T10:34:19.211Z,65.5
2018-08-12T10:35:09.284Z,65.6
2018-08-12T10:35:59.357Z,65.8
2018-08-12T10:36:49.403Z,65.9
2018-08-12T10:37:39.214Z,65.8
2018-08-12T10:38:29.536Z,65.7
2018-08-12T10:39:19.601Z,65.6
2018-08-12T10:40:09.121Z,65.7
2018-08-12T10:40:59.722Z,65.8
2018-08-12T10:41:49.819Z,65.9
2018-08-12T10:42:39.866Z,66
2018-08-12T10:43:29.659Z,66.1
2018-08-12T10:44:20.480Z,66.1
2018-08-12T10:45:10.074Z,66.3
2018-08-12T10:46:00.133Z,66.4
2018-08-12T10:46:49.933Z,66.4
2018-08-12T10:47:40.267Z,66.2
2018-08-12T10:48:30.051Z,65.8
2018-08-12T10:49:20.414Z,65.4
2018-08-12T10:50:10.197Z,64.9
2018-08-12T10:51:00.700Z,64.7
2018-08-12T10:51:50.607Z,65
2018-08-12T10:52:40.691Z,65.4
2018-08-12T10:53:30.999Z,65.7
2018-08-12T10:54:20.790Z,65.9
2018-08-12T10:55:10.860Z,66
2018-08-12T10:56:00.631Z,66.1
2018-08-12T10:56:50.707Z,66.3
2018-08-12T10:57:41.061Z,66.4
2018-08-12T10:58:30.825Z,66.6
2018-08-12T10:59:21.547Z,66.8
2018-08-12T11:00:10.690Z,66.8
2018-08-12T11:01:01.292Z,66.6
2018-08-12T11:01:51.379Z,66.4
2018-08-12T11:02:41.470Z,66.4
2018-08-12T11:03:31.509Z,66.4
2018-08-12T11:04:21.552Z,66.3
2018-08-12T11:05:11.634Z,65.9
2018-08-12T11:06:01.736Z,65.7
2018-08-12T11:06:51.298Z,65.8
2018-08-12T11:07:41.856Z,65.9
2018-08-12T11:08:31.329Z,66.2
2018-08-12T11:09:21.403Z,66.4
2018-08-12T11:10:12.037Z,66.6
2018-08-12T11:11:02.075Z,66.8
2018-08-12T11:11:51.876Z,66.9
2018-08-12T11:12:42.644Z,66.6
2018-08-12T11:13:32.297Z,66.4
2018-08-12T11:14:22.345Z,66
2018-08-12T11:15:12.128Z,65.1
2018-08-12T11:16:02.498Z,64.3
2018-08-12T11:16:52.265Z,63.4
2018-08-12T11:17:42.382Z,62.7
2018-08-12T11:18:32.677Z,62.1
2018-08-12T11:19:22.721Z,61.7
2018-08-12T11:20:12.537Z,61.3
2018-08-12T11:21:02.316Z,60.9
2018-08-12T11:21:52.960Z,60.3
2018-08-12T11:22:43.015Z,59.8
2018-08-12T11:23:33.060Z,59.3
2018-08-12T11:24:23.110Z,58.9
2018-08-12T11:25:13.204Z,59.3
2018-08-12T11:26:02.995Z,60.2
2018-08-12T11:26:53.319Z,61.6
2018-08-12T11:27:43.397Z,63.9
2018-08-12T11:28:33.711Z,64.6
2018-08-12T11:29:23.539Z,64.8
2018-08-12T11:30:13.583Z,64.2
2018-08-12T11:31:03.693Z,63.5
2018-08-12T11:31:53.436Z,63
2018-08-12T11:32:43.224Z,63
2018-08-12T11:33:33.843Z,63.6
2018-08-12T11:34:23.892Z,64.2
2018-08-12T11:35:13.963Z,64.6
2018-08-12T11:36:03.761Z,64.9
2018-08-12T11:36:54.109Z,64.8
2018-08-12T11:37:44.220Z,64.7
2018-08-12T11:38:34.214Z,64.5
2018-08-12T11:39:24.027Z,64.6
2018-08-12T11:40:14.394Z,64.6
2018-08-12T11:41:04.205Z,64.8
2018-08-12T11:41:54.502Z,64.9
2018-08-12T11:42:44.575Z,65
2018-08-12T11:43:34.614Z,64.9
2018-08-12T11:44:24.404Z,64.9
2018-08-12T11:45:14.747Z,64.9
2018-08-12T11:46:04.811Z,64.9
2018-08-12T11:46:54.875Z,64.9
2018-08-12T11:47:44.945Z,64.9
2018-08-12T11:48:34.990Z,64.8
2018-08-12T11:49:25.088Z,64.8
2018-08-12T11:50:14.863Z,64.6
2018-08-12T11:51:05.212Z,64.5
2018-08-12T11:51:55.255Z,64.3
2018-08-12T11:52:45.052Z,64.2
2018-08-12T11:53:35.402Z,64.1
2018-08-12T11:54:25.187Z,64
2018-08-12T11:55:15.246Z,64
2018-08-12T11:56:05.327Z,64
2018-08-12T11:56:55.824Z,64
2018-08-12T11:57:45.168Z,64.1
2018-08-12T11:58:35.819Z,64.2
2018-08-12T11:59:25.588Z,64.3
2018-08-12T12:00:15.074Z,64.5
2018-08-12T12:01:05.994Z,64.7
2018-08-12T12:01:56.045Z,64.9
2018-08-12T12:02:46.127Z,65
2018-08-12T12:03:35.897Z,65.2